sensor_id;sensor_type;location;lat;lon;timestamp;P1;durP1;ratioP1;P2;durP2;ratioP2
44139;SDS011;29803;51.048;4.686;2022-12-16T00:02:08;121.70;;;46.70;;
44139;SDS011;29803;51.048;4.686;2022-12-16T00:04:39;116.13;;;48.35;;
44139;SDS011;29803;51.048;4.686;2022-12-16T00:07:10;127.43;;;47.40;;
44139;SDS011;29803;51.048;4.686;2022-12-16T00:09:40;117.78;;;46.90;;
44139;SDS011;29803;51.048;4.686;2022-12-16T00:12:11;131.88;;;47.50;;
44139;SDS011;29803;51.048;4.686;2022-12-16T00:14:41;123.95;;;46.78;;
44139;SDS011;29803;51.048;4.686;2022-12-16T00:17:11;122.05;;;46.58;;
44139;SDS011;29803;51.048;4.686;2022-12-16T00:19:42;121.40;;;45.72;;
44139;SDS011;29803;51.048;4.686;2022-12-16T00:22:12;121.57;;;47.75;;
44139;SDS011;29803;51.048;4.686;2022-12-16T00:24:43;129.50;;;51.17;;
44139;SDS011;29803;51.048;4.686;2022-12-16T00:27:13;123.80;;;47.30;;
44139;SDS011;29803;51.048;4.686;2022-12-16T00:29:44;113.38;;;45.85;;
44139;SDS011;29803;51.048;4.686;2022-12-16T00:32:14;115.50;;;44.67;;
44139;SDS011;29803;51.048;4.686;2022-12-16T00:34:45;124.70;;;45.92;;
44139;SDS011;29803;51.048;4.686;2022-12-16T00:37:15;112.70;;;46.72;;
44139;SDS011;29803;51.048;4.686;2022-12-16T00:39:45;124.65;;;46.53;;
44139;SDS011;29803;51.048;4.686;2022-12-16T00:42:16;122.80;;;48.28;;
44139;SDS011;29803;51.048;4.686;2022-12-16T00:44:46;124.35;;;46.40;;
44139;SDS011;29803;51.048;4.686;2022-12-16T00:47:17;119.82;;;44.50;;
44139;SDS011;29803;51.048;4.686;2022-12-16T00:49:47;110.22;;;44.72;;
44139;SDS011;29803;51.048;4.686;2022-12-16T00:52:18;112.75;;;45.20;;
44139;SDS011;29803;51.048;4.686;2022-12-16T00:54:48;115.13;;;43.90;;
44139;SDS011;29803;51.048;4.686;2022-12-16T00:57:18;116.82;;;43.83;;
44139;SDS011;29803;51.048;4.686;2022-12-16T00:59:49;108.03;;;43.40;;
44139;SDS011;29803;51.048;4.686;2022-12-16T01:02:19;111.70;;;42.70;;
44139;SDS011;29803;51.048;4.686;2022-12-16T01:04:50;107.78;;;42.10;;
44139;SDS011;29803;51.048;4.686;2022-12-16T01:07:20;110.50;;;41.97;;
44139;SDS011;29803;51.048;4.686;2022-12-16T01:09:51;111.28;;;44.50;;
44139;SDS011;29803;51.048;4.686;2022-12-16T01:12:21;101.82;;;42.83;;
44139;SDS011;29803;51.048;4.686;2022-12-16T01:14:53;97.82;;;40.40;;
44139;SDS011;29803;51.048;4.686;2022-12-16T01:17:23;114.55;;;43.00;;
44139;SDS011;29803;51.048;4.686;2022-12-16T01:19:57;114.22;;;46.20;;
44139;SDS011;29803;51.048;4.686;2022-12-16T01:22:28;120.45;;;47.45;;
44139;SDS011;29803;51.048;4.686;2022-12-16T01:25:01;102.85;;;42.53;;
44139;SDS011;29803;51.048;4.686;2022-12-16T01:27:32;106.15;;;45.17;;
44139;SDS011;29803;51.048;4.686;2022-12-16T01:30:03;113.88;;;45.53;;
44139;SDS011;29803;51.048;4.686;2022-12-16T01:32:34;105.97;;;44.42;;
44139;SDS011;29803;51.048;4.686;2022-12-16T01:35:05;96.18;;;41.55;;
44139;SDS011;29803;51.048;4.686;2022-12-16T01:37:36;106.03;;;41.97;;
44139;SDS011;29803;51.048;4.686;2022-12-16T01:40:07;109.38;;;42.40;;
44139;SDS011;29803;51.048;4.686;2022-12-16T01:42:46;109.55;;;43.63;;
44139;SDS011;29803;51.048;4.686;2022-12-16T01:45:28;112.88;;;44.53;;
44139;SDS011;29803;51.048;4.686;2022-12-16T01:48:02;109.70;;;44.35;;
44139;SDS011;29803;51.048;4.686;2022-12-16T01:50:45;107.03;;;43.78;;
44139;SDS011;29803;51.048;4.686;2022-12-16T01:53:17;112.57;;;41.33;;
44139;SDS011;29803;51.048;4.686;2022-12-16T01:55:48;101.68;;;40.97;;
44139;SDS011;29803;51.048;4.686;2022-12-16T01:58:22;98.25;;;39.10;;
44139;SDS011;29803;51.048;4.686;2022-12-16T02:03:28;101.55;;;38.55;;
44139;SDS011;29803;51.048;4.686;2022-12-16T02:06:01;108.20;;;41.85;;
44139;SDS011;29803;51.048;4.686;2022-12-16T02:08:34;94.85;;;38.78;;
44139;SDS011;29803;51.048;4.686;2022-12-16T02:11:06;104.10;;;40.50;;
44139;SDS011;29803;51.048;4.686;2022-12-16T02:28:31;105.40;;;40.97;;
44139;SDS011;29803;51.048;4.686;2022-12-16T02:31:37;98.35;;;38.55;;
44139;SDS011;29803;51.048;4.686;2022-12-16T02:34:25;96.72;;;39.33;;
44139;SDS011;29803;51.048;4.686;2022-12-16T02:40:05;97.95;;;41.00;;
44139;SDS011;29803;51.048;4.686;2022-12-16T02:42:59;98.20;;;38.08;;
44139;SDS011;29803;51.048;4.686;2022-12-16T02:45:34;95.22;;;38.50;;
44139;SDS011;29803;51.048;4.686;2022-12-16T02:48:06;99.90;;;39.38;;
44139;SDS011;29803;51.048;4.686;2022-12-16T02:50:54;101.93;;;41.75;;
44139;SDS011;29803;51.048;4.686;2022-12-16T02:53:25;92.50;;;37.80;;
44139;SDS011;29803;51.048;4.686;2022-12-16T02:56:07;90.38;;;38.80;;
44139;SDS011;29803;51.048;4.686;2022-12-16T03:01:56;88.95;;;37.70;;
44139;SDS011;29803;51.048;4.686;2022-12-16T03:04:36;96.63;;;40.63;;
44139;SDS011;29803;51.048;4.686;2022-12-16T03:07:12;95.47;;;37.97;;
44139;SDS011;29803;51.048;4.686;2022-12-16T03:09:45;92.25;;;39.50;;
44139;SDS011;29803;51.048;4.686;2022-12-16T03:12:18;91.88;;;37.83;;
44139;SDS011;29803;51.048;4.686;2022-12-16T03:14:52;103.88;;;40.38;;
44139;SDS011;29803;51.048;4.686;2022-12-16T03:17:24;101.13;;;40.90;;
44139;SDS011;29803;51.048;4.686;2022-12-16T03:20:07;98.28;;;40.70;;
44139;SDS011;29803;51.048;4.686;2022-12-16T03:22:43;88.32;;;40.10;;
44139;SDS011;29803;51.048;4.686;2022-12-16T03:25:17;98.70;;;41.90;;
44139;SDS011;29803;51.048;4.686;2022-12-16T03:27:58;95.10;;;41.15;;
44139;SDS011;29803;51.048;4.686;2022-12-16T03:30:44;98.95;;;41.25;;
44139;SDS011;29803;51.048;4.686;2022-12-16T03:33:23;103.50;;;40.75;;
44139;SDS011;29803;51.048;4.686;2022-12-16T03:36:32;103.53;;;41.25;;
44139;SDS011;29803;51.048;4.686;2022-12-16T03:38:56;108.30;;;41.72;;
44139;SDS011;29803;51.048;4.686;2022-12-16T03:41:29;104.72;;;41.78;;
44139;SDS011;29803;51.048;4.686;2022-12-16T03:44:01;96.75;;;39.55;;
44139;SDS011;29803;51.048;4.686;2022-12-16T03:46:32;99.35;;;40.20;;
44139;SDS011;29803;51.048;4.686;2022-12-16T03:49:03;95.90;;;40.70;;
44139;SDS011;29803;51.048;4.686;2022-12-16T03:51:33;100.18;;;39.80;;
44139;SDS011;29803;51.048;4.686;2022-12-16T03:54:04;104.32;;;39.53;;
44139;SDS011;29803;51.048;4.686;2022-12-16T03:56:34;105.32;;;41.58;;
44139;SDS011;29803;51.048;4.686;2022-12-16T03:59:05;102.80;;;38.65;;
44139;SDS011;29803;51.048;4.686;2022-12-16T04:01:35;119.47;;;41.17;;
44139;SDS011;29803;51.048;4.686;2022-12-16T04:04:06;114.07;;;41.33;;
44139;SDS011;29803;51.048;4.686;2022-12-16T04:06:37;122.53;;;42.97;;
44139;SDS011;29803;51.048;4.686;2022-12-16T04:09:07;129.02;;;42.60;;
44139;SDS011;29803;51.048;4.686;2022-12-16T04:11:38;146.63;;;44.67;;
44139;SDS011;29803;51.048;4.686;2022-12-16T04:14:27;123.55;;;42.80;;
44139;SDS011;29803;51.048;4.686;2022-12-16T04:17:26;128.00;;;42.45;;
44139;SDS011;29803;51.048;4.686;2022-12-16T04:20:33;132.40;;;43.40;;
44139;SDS011;29803;51.048;4.686;2022-12-16T04:23:25;138.30;;;43.42;;
44139;SDS011;29803;51.048;4.686;2022-12-16T04:26:16;127.75;;;44.45;;
44139;SDS011;29803;51.048;4.686;2022-12-16T04:28:47;133.65;;;42.95;;
44139;SDS011;29803;51.048;4.686;2022-12-16T04:31:17;118.03;;;40.70;;
44139;SDS011;29803;51.048;4.686;2022-12-16T04:33:48;134.48;;;47.33;;
44139;SDS011;29803;51.048;4.686;2022-12-16T04:36:37;133.30;;;44.55;;
44139;SDS011;29803;51.048;4.686;2022-12-16T04:39:25;135.30;;;45.85;;
44139;SDS011;29803;51.048;4.686;2022-12-16T04:42:14;120.35;;;42.25;;
44139;SDS011;29803;51.048;4.686;2022-12-16T04:45:03;127.15;;;42.92;;
44139;SDS011;29803;51.048;4.686;2022-12-16T04:47:52;121.50;;;42.95;;
44139;SDS011;29803;51.048;4.686;2022-12-16T04:50:41;119.43;;;42.33;;
44139;SDS011;29803;51.048;4.686;2022-12-16T04:53:32;120.93;;;42.67;;
44139;SDS011;29803;51.048;4.686;2022-12-16T04:56:20;117.85;;;41.13;;
44139;SDS011;29803;51.048;4.686;2022-12-16T04:59:20;117.07;;;42.70;;
44139;SDS011;29803;51.048;4.686;2022-12-16T05:02:08;111.28;;;41.80;;
44139;SDS011;29803;51.048;4.686;2022-12-16T05:04:57;130.38;;;44.47;;
44139;SDS011;29803;51.048;4.686;2022-12-16T05:07:46;121.18;;;42.60;;
44139;SDS011;29803;51.048;4.686;2022-12-16T05:10:34;117.00;;;40.38;;
44139;SDS011;29803;51.048;4.686;2022-12-16T05:13:23;107.68;;;39.80;;
44139;SDS011;29803;51.048;4.686;2022-12-16T05:16:12;125.03;;;40.80;;
44139;SDS011;29803;51.048;4.686;2022-12-16T05:19:00;128.38;;;41.80;;
44139;SDS011;29803;51.048;4.686;2022-12-16T05:21:49;131.30;;;41.63;;
44139;SDS011;29803;51.048;4.686;2022-12-16T05:24:38;118.65;;;39.95;;
44139;SDS011;29803;51.048;4.686;2022-12-16T05:27:27;121.38;;;41.58;;
44139;SDS011;29803;51.048;4.686;2022-12-16T05:30:16;133.07;;;42.38;;
44139;SDS011;29803;51.048;4.686;2022-12-16T05:33:05;129.73;;;43.38;;
44139;SDS011;29803;51.048;4.686;2022-12-16T05:35:54;135.10;;;44.65;;
44139;SDS011;29803;51.048;4.686;2022-12-16T05:38:44;124.03;;;40.13;;
44139;SDS011;29803;51.048;4.686;2022-12-16T05:41:33;125.03;;;41.47;;
44139;SDS011;29803;51.048;4.686;2022-12-16T05:44:22;119.95;;;41.80;;
44139;SDS011;29803;51.048;4.686;2022-12-16T05:47:11;132.98;;;43.35;;
44139;SDS011;29803;51.048;4.686;2022-12-16T05:50:00;126.07;;;42.47;;
44139;SDS011;29803;51.048;4.686;2022-12-16T05:52:49;144.07;;;42.22;;
44139;SDS011;29803;51.048;4.686;2022-12-16T05:55:40;140.75;;;44.15;;
44139;SDS011;29803;51.048;4.686;2022-12-16T05:58:29;121.60;;;44.83;;
44139;SDS011;29803;51.048;4.686;2022-12-16T06:01:18;136.98;;;44.75;;
44139;SDS011;29803;51.048;4.686;2022-12-16T06:04:07;126.32;;;42.72;;
44139;SDS011;29803;51.048;4.686;2022-12-16T06:06:56;143.88;;;45.13;;
44139;SDS011;29803;51.048;4.686;2022-12-16T06:09:45;133.30;;;43.03;;
44139;SDS011;29803;51.048;4.686;2022-12-16T06:12:34;140.40;;;45.28;;
44139;SDS011;29803;51.048;4.686;2022-12-16T06:15:23;144.00;;;44.70;;
44139;SDS011;29803;51.048;4.686;2022-12-16T06:18:12;121.28;;;43.72;;
44139;SDS011;29803;51.048;4.686;2022-12-16T06:21:00;156.20;;;45.40;;
44139;SDS011;29803;51.048;4.686;2022-12-16T06:23:50;131.98;;;44.22;;
44139;SDS011;29803;51.048;4.686;2022-12-16T06:26:38;137.13;;;45.00;;
44139;SDS011;29803;51.048;4.686;2022-12-16T06:29:27;125.20;;;41.28;;
44139;SDS011;29803;51.048;4.686;2022-12-16T06:32:16;113.38;;;38.53;;
44139;SDS011;29803;51.048;4.686;2022-12-16T06:35:05;107.95;;;37.47;;
44139;SDS011;29803;51.048;4.686;2022-12-16T06:37:54;105.10;;;36.67;;
44139;SDS011;29803;51.048;4.686;2022-12-16T06:40:43;100.40;;;37.85;;
44139;SDS011;29803;51.048;4.686;2022-12-16T06:43:31;101.15;;;35.15;;
44139;SDS011;29803;51.048;4.686;2022-12-16T06:46:27;93.00;;;34.00;;
44139;SDS011;29803;51.048;4.686;2022-12-16T06:49:16;107.60;;;37.05;;
44139;SDS011;29803;51.048;4.686;2022-12-16T06:52:05;101.80;;;35.33;;
44139;SDS011;29803;51.048;4.686;2022-12-16T06:54:55;107.20;;;37.00;;
44139;SDS011;29803;51.048;4.686;2022-12-16T06:57:45;113.10;;;36.22;;
44139;SDS011;29803;51.048;4.686;2022-12-16T07:00:35;110.20;;;37.33;;
44139;SDS011;29803;51.048;4.686;2022-12-16T07:03:23;108.85;;;35.00;;
44139;SDS011;29803;51.048;4.686;2022-12-16T07:06:13;100.70;;;35.65;;
44139;SDS011;29803;51.048;4.686;2022-12-16T07:09:02;113.97;;;37.40;;
44139;SDS011;29803;51.048;4.686;2022-12-16T07:11:51;114.40;;;37.13;;
44139;SDS011;29803;51.048;4.686;2022-12-16T07:14:40;101.60;;;36.03;;
44139;SDS011;29803;51.048;4.686;2022-12-16T07:17:29;109.75;;;35.50;;
44139;SDS011;29803;51.048;4.686;2022-12-16T07:20:18;103.53;;;34.88;;
44139;SDS011;29803;51.048;4.686;2022-12-16T07:23:07;99.88;;;33.53;;
44139;SDS011;29803;51.048;4.686;2022-12-16T07:25:56;86.72;;;32.95;;
44139;SDS011;29803;51.048;4.686;2022-12-16T07:28:46;92.57;;;34.13;;
44139;SDS011;29803;51.048;4.686;2022-12-16T07:31:34;101.93;;;34.13;;
44139;SDS011;29803;51.048;4.686;2022-12-16T07:34:23;87.82;;;31.90;;
44139;SDS011;29803;51.048;4.686;2022-12-16T07:37:12;95.60;;;34.15;;
44139;SDS011;29803;51.048;4.686;2022-12-16T07:40:00;99.00;;;33.85;;
44139;SDS011;29803;51.048;4.686;2022-12-16T07:42:51;91.18;;;32.03;;
44139;SDS011;29803;51.048;4.686;2022-12-16T07:45:40;92.13;;;32.42;;
44139;SDS011;29803;51.048;4.686;2022-12-16T07:48:29;87.93;;;31.75;;
44139;SDS011;29803;51.048;4.686;2022-12-16T07:51:17;93.03;;;32.40;;
44139;SDS011;29803;51.048;4.686;2022-12-16T07:54:06;87.75;;;32.60;;
44139;SDS011;29803;51.048;4.686;2022-12-16T07:56:55;96.05;;;33.58;;
44139;SDS011;29803;51.048;4.686;2022-12-16T07:59:43;97.03;;;32.35;;
44139;SDS011;29803;51.048;4.686;2022-12-16T08:02:33;91.93;;;32.45;;
44139;SDS011;29803;51.048;4.686;2022-12-16T08:05:21;92.32;;;32.63;;
44139;SDS011;29803;51.048;4.686;2022-12-16T08:08:10;90.35;;;32.45;;
44139;SDS011;29803;51.048;4.686;2022-12-16T08:10:59;87.07;;;30.63;;
44139;SDS011;29803;51.048;4.686;2022-12-16T08:13:48;83.57;;;29.40;;
44139;SDS011;29803;51.048;4.686;2022-12-16T08:16:37;88.63;;;30.40;;
44139;SDS011;29803;51.048;4.686;2022-12-16T08:19:25;90.50;;;32.35;;
44139;SDS011;29803;51.048;4.686;2022-12-16T08:22:14;93.35;;;31.45;;
44139;SDS011;29803;51.048;4.686;2022-12-16T08:25:03;101.18;;;32.08;;
44139;SDS011;29803;51.048;4.686;2022-12-16T08:27:53;103.00;;;34.13;;
44139;SDS011;29803;51.048;4.686;2022-12-16T08:30:43;98.63;;;33.35;;
44139;SDS011;29803;51.048;4.686;2022-12-16T08:33:36;107.57;;;33.45;;
44139;SDS011;29803;51.048;4.686;2022-12-16T08:36:25;106.35;;;34.72;;
44139;SDS011;29803;51.048;4.686;2022-12-16T08:39:13;98.68;;;33.92;;
44139;SDS011;29803;51.048;4.686;2022-12-16T08:42:02;107.63;;;34.42;;
44139;SDS011;29803;51.048;4.686;2022-12-16T08:44:51;102.78;;;34.80;;
44139;SDS011;29803;51.048;4.686;2022-12-16T08:47:40;109.80;;;34.03;;
44139;SDS011;29803;51.048;4.686;2022-12-16T08:50:29;99.32;;;33.25;;
44139;SDS011;29803;51.048;4.686;2022-12-16T08:53:18;91.03;;;32.50;;
44139;SDS011;29803;51.048;4.686;2022-12-16T08:56:07;99.45;;;33.28;;
44139;SDS011;29803;51.048;4.686;2022-12-16T08:58:57;91.75;;;32.35;;
44139;SDS011;29803;51.048;4.686;2022-12-16T09:01:47;93.18;;;31.73;;
44139;SDS011;29803;51.048;4.686;2022-12-16T09:04:37;98.85;;;33.17;;
44139;SDS011;29803;51.048;4.686;2022-12-16T09:07:26;89.55;;;31.60;;
44139;SDS011;29803;51.048;4.686;2022-12-16T09:10:16;90.88;;;33.10;;
44139;SDS011;29803;51.048;4.686;2022-12-16T09:13:09;100.53;;;34.10;;
44139;SDS011;29803;51.048;4.686;2022-12-16T09:16:02;96.50;;;33.42;;
44139;SDS011;29803;51.048;4.686;2022-12-16T09:18:52;92.45;;;32.33;;
44139;SDS011;29803;51.048;4.686;2022-12-16T09:21:41;88.63;;;32.35;;
44139;SDS011;29803;51.048;4.686;2022-12-16T09:24:30;89.03;;;31.65;;
44139;SDS011;29803;51.048;4.686;2022-12-16T09:27:19;87.45;;;32.03;;
44139;SDS011;29803;51.048;4.686;2022-12-16T09:30:08;89.32;;;32.38;;
44139;SDS011;29803;51.048;4.686;2022-12-16T09:33:00;98.95;;;35.58;;
44139;SDS011;29803;51.048;4.686;2022-12-16T09:35:49;94.25;;;32.17;;
44139;SDS011;29803;51.048;4.686;2022-12-16T09:38:38;78.70;;;30.27;;
44139;SDS011;29803;51.048;4.686;2022-12-16T09:47:37;82.07;;;28.45;;
44139;SDS011;29803;51.048;4.686;2022-12-16T09:50:48;82.63;;;30.42;;
44139;SDS011;29803;51.048;4.686;2022-12-16T09:53:41;70.63;;;28.13;;
44139;SDS011;29803;51.048;4.686;2022-12-16T09:56:32;82.72;;;27.83;;
44139;SDS011;29803;51.048;4.686;2022-12-16T09:59:36;63.50;;;25.17;;
44139;SDS011;29803;51.048;4.686;2022-12-16T10:02:28;77.25;;;28.92;;
44139;SDS011;29803;51.048;4.686;2022-12-16T10:05:18;73.80;;;27.42;;
44139;SDS011;29803;51.048;4.686;2022-12-16T10:08:35;73.00;;;27.40;;
44139;SDS011;29803;51.048;4.686;2022-12-16T10:11:31;84.18;;;30.63;;
44139;SDS011;29803;51.048;4.686;2022-12-16T10:14:42;86.47;;;28.95;;
44139;SDS011;29803;51.048;4.686;2022-12-16T10:17:39;73.10;;;30.10;;
44139;SDS011;29803;51.048;4.686;2022-12-16T10:20:39;62.70;;;26.92;;
44139;SDS011;29803;51.048;4.686;2022-12-16T10:23:40;80.35;;;29.77;;
44139;SDS011;29803;51.048;4.686;2022-12-16T10:29:33;68.93;;;27.08;;
44139;SDS011;29803;51.048;4.686;2022-12-16T10:32:45;67.45;;;25.48;;
44139;SDS011;29803;51.048;4.686;2022-12-16T10:35:37;67.72;;;26.80;;
44139;SDS011;29803;51.048;4.686;2022-12-16T10:41:26;70.90;;;26.98;;
44139;SDS011;29803;51.048;4.686;2022-12-16T10:44:38;84.35;;;28.90;;
44139;SDS011;29803;51.048;4.686;2022-12-16T10:47:43;74.35;;;27.98;;
44139;SDS011;29803;51.048;4.686;2022-12-16T10:50:31;73.07;;;27.08;;
44139;SDS011;29803;51.048;4.686;2022-12-16T10:53:24;68.13;;;24.63;;
44139;SDS011;29803;51.048;4.686;2022-12-16T10:56:23;81.68;;;27.08;;
44139;SDS011;29803;51.048;4.686;2022-12-16T10:59:19;74.25;;;26.20;;
44139;SDS011;29803;51.048;4.686;2022-12-16T11:08:24;91.05;;;29.25;;
44139;SDS011;29803;51.048;4.686;2022-12-16T11:11:20;75.93;;;27.10;;
44139;SDS011;29803;51.048;4.686;2022-12-16T11:17:27;71.63;;;27.35;;
44139;SDS011;29803;51.048;4.686;2022-12-16T11:20:17;69.35;;;26.27;;
44139;SDS011;29803;51.048;4.686;2022-12-16T11:26:04;78.80;;;26.40;;
44139;SDS011;29803;51.048;4.686;2022-12-16T11:29:14;74.35;;;25.90;;
44139;SDS011;29803;51.048;4.686;2022-12-16T11:32:16;70.95;;;26.73;;
44139;SDS011;29803;51.048;4.686;2022-12-16T11:35:10;81.22;;;29.13;;
44139;SDS011;29803;51.048;4.686;2022-12-16T11:38:03;78.53;;;28.13;;
44139;SDS011;29803;51.048;4.686;2022-12-16T11:41:02;77.90;;;26.10;;
44139;SDS011;29803;51.048;4.686;2022-12-16T11:43:52;89.07;;;28.38;;
44139;SDS011;29803;51.048;4.686;2022-12-16T11:46:43;78.18;;;27.02;;
44139;SDS011;29803;51.048;4.686;2022-12-16T11:49:33;75.10;;;27.42;;
44139;SDS011;29803;51.048;4.686;2022-12-16T11:52:22;78.00;;;28.10;;
44139;SDS011;29803;51.048;4.686;2022-12-16T11:55:16;78.22;;;27.05;;
44139;SDS011;29803;51.048;4.686;2022-12-16T11:58:20;73.50;;;26.30;;
44139;SDS011;29803;51.048;4.686;2022-12-16T12:01:26;76.13;;;26.75;;
44139;SDS011;29803;51.048;4.686;2022-12-16T12:04:20;67.28;;;24.85;;
44139;SDS011;29803;51.048;4.686;2022-12-16T12:10:46;66.03;;;25.35;;
44139;SDS011;29803;51.048;4.686;2022-12-16T12:16:42;55.95;;;22.60;;
44139;SDS011;29803;51.048;4.686;2022-12-16T12:22:50;57.42;;;21.63;;
44139;SDS011;29803;51.048;4.686;2022-12-16T12:25:51;61.67;;;20.77;;
44139;SDS011;29803;51.048;4.686;2022-12-16T12:35:26;57.20;;;20.33;;
44139;SDS011;29803;51.048;4.686;2022-12-16T12:38:35;55.88;;;18.90;;
44139;SDS011;29803;51.048;4.686;2022-12-16T12:41:38;52.20;;;20.92;;
44139;SDS011;29803;51.048;4.686;2022-12-16T12:54:58;63.55;;;24.77;;
44139;SDS011;29803;51.048;4.686;2022-12-16T12:57:52;40.17;;;16.92;;
44139;SDS011;29803;51.048;4.686;2022-12-16T13:00:47;42.20;;;16.60;;
44139;SDS011;29803;51.048;4.686;2022-12-16T13:03:53;44.40;;;17.03;;
44139;SDS011;29803;51.048;4.686;2022-12-16T13:06:45;36.50;;;15.52;;
44139;SDS011;29803;51.048;4.686;2022-12-16T13:09:35;39.63;;;15.20;;
44139;SDS011;29803;51.048;4.686;2022-12-16T13:20:56;36.35;;;15.20;;
44139;SDS011;29803;51.048;4.686;2022-12-16T13:23:46;45.53;;;17.17;;
44139;SDS011;29803;51.048;4.686;2022-12-16T13:26:35;32.17;;;14.60;;
44139;SDS011;29803;51.048;4.686;2022-12-16T13:32:18;40.78;;;15.65;;
44139;SDS011;29803;51.048;4.686;2022-12-16T13:46:40;45.05;;;18.25;;
44139;SDS011;29803;51.048;4.686;2022-12-16T13:55:29;46.53;;;19.08;;
44139;SDS011;29803;51.048;4.686;2022-12-16T14:02:10;36.75;;;16.90;;
44139;SDS011;29803;51.048;4.686;2022-12-16T14:04:43;38.92;;;17.33;;
44139;SDS011;29803;51.048;4.686;2022-12-16T14:07:36;32.92;;;15.48;;
44139;SDS011;29803;51.048;4.686;2022-12-16T14:10:33;37.17;;;16.92;;
44139;SDS011;29803;51.048;4.686;2022-12-16T14:16:42;43.10;;;16.50;;
44139;SDS011;29803;51.048;4.686;2022-12-16T14:20:02;44.58;;;18.45;;
44139;SDS011;29803;51.048;4.686;2022-12-16T14:22:56;43.58;;;19.17;;
44139;SDS011;29803;51.048;4.686;2022-12-16T14:26:14;53.47;;;18.50;;
44139;SDS011;29803;51.048;4.686;2022-12-16T14:29:10;37.40;;;16.75;;
44139;SDS011;29803;51.048;4.686;2022-12-16T14:32:31;45.67;;;17.30;;
44139;SDS011;29803;51.048;4.686;2022-12-16T14:35:23;44.25;;;18.02;;
44139;SDS011;29803;51.048;4.686;2022-12-16T14:38:24;49.22;;;19.25;;
44139;SDS011;29803;51.048;4.686;2022-12-16T14:41:15;36.72;;;16.80;;
44139;SDS011;29803;51.048;4.686;2022-12-16T14:44:26;41.15;;;17.48;;
44139;SDS011;29803;51.048;4.686;2022-12-16T14:47:16;44.03;;;18.92;;
44139;SDS011;29803;51.048;4.686;2022-12-16T14:50:21;42.03;;;17.60;;
44139;SDS011;29803;51.048;4.686;2022-12-16T14:53:15;44.55;;;18.77;;
44139;SDS011;29803;51.048;4.686;2022-12-16T14:56:08;47.97;;;17.60;;
44139;SDS011;29803;51.048;4.686;2022-12-16T14:59:05;43.75;;;19.83;;
44139;SDS011;29803;51.048;4.686;2022-12-16T15:02:20;52.03;;;20.23;;
44139;SDS011;29803;51.048;4.686;2022-12-16T15:05:29;55.92;;;19.55;;
44139;SDS011;29803;51.048;4.686;2022-12-16T15:08:21;43.78;;;19.15;;
44139;SDS011;29803;51.048;4.686;2022-12-16T15:11:11;52.95;;;21.45;;
44139;SDS011;29803;51.048;4.686;2022-12-16T15:14:06;45.70;;;18.58;;
44139;SDS011;29803;51.048;4.686;2022-12-16T15:16:59;49.20;;;19.80;;
44139;SDS011;29803;51.048;4.686;2022-12-16T15:19:49;55.17;;;20.60;;
44139;SDS011;29803;51.048;4.686;2022-12-16T15:22:44;50.50;;;20.90;;
44139;SDS011;29803;51.048;4.686;2022-12-16T15:25:36;67.32;;;24.15;;
44139;SDS011;29803;51.048;4.686;2022-12-16T15:28:35;54.70;;;23.60;;
44139;SDS011;29803;51.048;4.686;2022-12-16T15:31:31;61.25;;;24.13;;
44139;SDS011;29803;51.048;4.686;2022-12-16T15:37:16;58.72;;;23.33;;
44139;SDS011;29803;51.048;4.686;2022-12-16T15:40:17;65.28;;;23.17;;
44139;SDS011;29803;51.048;4.686;2022-12-16T15:43:33;65.72;;;23.58;;
44139;SDS011;29803;51.048;4.686;2022-12-16T15:46:27;71.53;;;28.85;;
44139;SDS011;29803;51.048;4.686;2022-12-16T15:49:21;66.55;;;25.65;;
44139;SDS011;29803;51.048;4.686;2022-12-16T15:55:39;78.03;;;28.85;;
44139;SDS011;29803;51.048;4.686;2022-12-16T15:58:32;74.10;;;28.45;;
44139;SDS011;29803;51.048;4.686;2022-12-16T16:01:24;80.13;;;30.92;;
44139;SDS011;29803;51.048;4.686;2022-12-16T16:07:17;93.35;;;34.90;;
44139;SDS011;29803;51.048;4.686;2022-12-16T16:10:14;84.75;;;32.53;;
44139;SDS011;29803;51.048;4.686;2022-12-16T16:13:03;75.53;;;31.67;;
44139;SDS011;29803;51.048;4.686;2022-12-16T16:15:52;92.80;;;33.45;;
44139;SDS011;29803;51.048;4.686;2022-12-16T16:18:42;88.10;;;33.20;;
44139;SDS011;29803;51.048;4.686;2022-12-16T16:21:31;92.78;;;34.47;;
44139;SDS011;29803;51.048;4.686;2022-12-16T16:24:20;86.80;;;31.65;;
44139;SDS011;29803;51.048;4.686;2022-12-16T16:27:10;87.38;;;31.88;;
44139;SDS011;29803;51.048;4.686;2022-12-16T16:30:01;101.07;;;36.83;;
44139;SDS011;29803;51.048;4.686;2022-12-16T16:32:51;83.15;;;33.97;;
44139;SDS011;29803;51.048;4.686;2022-12-16T16:35:39;88.35;;;32.22;;
44139;SDS011;29803;51.048;4.686;2022-12-16T16:38:29;103.30;;;30.73;;
44139;SDS011;29803;51.048;4.686;2022-12-16T16:41:18;70.72;;;27.42;;
44139;SDS011;29803;51.048;4.686;2022-12-16T16:44:07;80.00;;;30.10;;
44139;SDS011;29803;51.048;4.686;2022-12-16T16:46:56;82.63;;;30.17;;
44139;SDS011;29803;51.048;4.686;2022-12-16T16:49:46;79.00;;;29.42;;
44139;SDS011;29803;51.048;4.686;2022-12-16T16:52:35;75.75;;;29.08;;
44139;SDS011;29803;51.048;4.686;2022-12-16T16:55:25;78.22;;;28.20;;
44139;SDS011;29803;51.048;4.686;2022-12-16T16:58:17;87.00;;;32.53;;
44139;SDS011;29803;51.048;4.686;2022-12-16T17:01:12;79.07;;;29.10;;
44139;SDS011;29803;51.048;4.686;2022-12-16T17:04:04;78.40;;;31.45;;
44139;SDS011;29803;51.048;4.686;2022-12-16T17:06:53;83.13;;;31.88;;
44139;SDS011;29803;51.048;4.686;2022-12-16T17:09:42;94.05;;;31.90;;
44139;SDS011;29803;51.048;4.686;2022-12-16T17:12:31;81.05;;;30.30;;
44139;SDS011;29803;51.048;4.686;2022-12-16T17:15:24;85.80;;;33.53;;
44139;SDS011;29803;51.048;4.686;2022-12-16T17:18:17;82.50;;;31.13;;
44139;SDS011;29803;51.048;4.686;2022-12-16T17:21:07;81.13;;;33.67;;
44139;SDS011;29803;51.048;4.686;2022-12-16T17:23:56;92.45;;;34.63;;
44139;SDS011;29803;51.048;4.686;2022-12-16T17:26:46;80.82;;;32.35;;
44139;SDS011;29803;51.048;4.686;2022-12-16T17:29:35;92.15;;;36.08;;
44139;SDS011;29803;51.048;4.686;2022-12-16T17:32:24;92.72;;;35.35;;
44139;SDS011;29803;51.048;4.686;2022-12-16T17:35:14;84.93;;;33.22;;
44139;SDS011;29803;51.048;4.686;2022-12-16T17:38:03;98.60;;;35.50;;
44139;SDS011;29803;51.048;4.686;2022-12-16T17:40:52;87.80;;;33.33;;
44139;SDS011;29803;51.048;4.686;2022-12-16T17:43:41;92.63;;;33.35;;
44139;SDS011;29803;51.048;4.686;2022-12-16T17:46:30;88.78;;;32.75;;
44139;SDS011;29803;51.048;4.686;2022-12-16T17:49:27;75.53;;;31.23;;
44139;SDS011;29803;51.048;4.686;2022-12-16T17:52:17;94.85;;;30.65;;
44139;SDS011;29803;51.048;4.686;2022-12-16T17:55:06;84.97;;;31.10;;
44139;SDS011;29803;51.048;4.686;2022-12-16T17:57:56;82.03;;;29.58;;
44139;SDS011;29803;51.048;4.686;2022-12-16T18:00:45;76.70;;;30.60;;
44139;SDS011;29803;51.048;4.686;2022-12-16T18:03:34;79.68;;;30.35;;
44139;SDS011;29803;51.048;4.686;2022-12-16T18:06:43;82.28;;;31.52;;
44139;SDS011;29803;51.048;4.686;2022-12-16T18:09:32;93.68;;;31.05;;
44139;SDS011;29803;51.048;4.686;2022-12-16T18:12:21;80.90;;;28.50;;
44139;SDS011;29803;51.048;4.686;2022-12-16T18:15:11;80.20;;;29.00;;